Time;durP1;ratioP1;P1;durP2;ratioP2;P2;SDS_P1;SDS_P2;PMS_P1;PMS_P2;Temp;Humidity;BMP_temperature;BMP_pressure;BME280_temperature;BME280_humidity;BME280_pressure;Samples;Min_cycle;Max_cycle;Signal;HPM_P1;HPM_P2
2023/06/10 00:01:55;;;;;;;;;;;;;;;21.36;78.78;-18601.00;5053278;28;19928;-78
2023/06/10 00:04:20;;;;;;;;;;;;;;;21.30;79.57;-18599.38;5052453;28;19920;-79
2023/06/10 00:06:48;;;;;;;;;;;;;;;21.38;78.05;-18601.69;5053516;28;20023;-79
2023/06/10 00:09:14;;;;;;;;;;;;;;;21.36;79.91;-18601.00;5050894;28;19917;-79
2023/06/10 00:11:39;;;;;;;;;;;;;;;21.40;78.19;-18602.09;5054241;28;20054;-79
2023/06/10 00:14:04;;;;;;;;;;;;;;;21.51;77.61;-18605.09;5051890;28;20396;-78
2023/06/10 00:16:30;;;;;;;;;;;;;;;21.43;78.44;-18602.78;5052536;28;19916;-79
2023/06/10 00:18:55;;;;;;;;;;;;;;;21.38;79.62;-18601.69;5051052;28;19920;-79
2023/06/10 00:21:21;;;;;;;;;;;;;;;21.34;79.34;-18600.47;5051098;28;19925;-78
2023/06/10 00:23:46;;;;;;;;;;;;;;;21.44;79.88;-18603.06;5051828;28;19927;-79
2023/06/10 00:26:12;;;;;;;;;;;;;;;21.26;80.07;-18598.28;5051294;28;20007;-78
2023/06/10 00:28:37;;;;;;;;;;;;;;;21.33;81.03;-18600.19;5049661;28;19967;-78
2023/06/10 00:31:04;;;;;;;;;;;;;;;21.17;82.06;-18595.97;5051012;28;19917;-79
2023/06/10 00:33:29;;;;;;;;;;;;;;;21.13;82.30;-18594.91;5051553;28;19916;-79
2023/06/10 00:35:54;;;;;;;;;;;;;;;21.10;83.25;-18594.09;5052936;28;19999;-79
2023/06/10 00:38:20;;;;;;;;;;;;;;;20.95;84.95;-18590.28;5048539;28;19917;-78
2023/06/10 00:40:45;;;;;;;;;;;;;;;21.05;83.11;-18592.84;5069009;28;20445;-79
2023/06/10 00:43:10;;;;;;;;;;;;;;;20.96;84.70;-18590.41;5049996;28;19978;-79
2023/06/10 00:45:36;;;;;;;;;;;;;;;20.88;85.59;-18588.22;5049736;28;20214;-78
2023/06/10 00:48:01;;;;;;;;;;;;;;;20.92;85.88;-18589.31;5050701;28;19925;-78
2023/06/10 00:50:27;;;;;;;;;;;;;;;20.96;86.44;-18590.41;5049269;28;19928;-79
2023/06/10 00:52:53;;;;;;;;;;;;;;;20.94;85.32;-18590.00;5051328;28;20007;-79
2023/06/10 00:55:19;;;;;;;;;;;;;;;20.87;86.27;-18588.09;5062437;28;19924;-79
2023/06/10 00:57:45;;;;;;;;;;;;;;;21.03;86.31;-18592.19;5051679;28;20533;-79
2023/06/10 01:00:12;;;;;;;;;;;;;;;20.87;86.58;-18587.97;5048815;28;19921;-78
2023/06/10 01:02:37;;;;;;;;;;;;;;;20.78;89.15;-18585.66;5047869;28;20042;-79
2023/06/10 01:05:03;;;;;;;;;;;;;;;20.77;88.76;-18585.38;5048959;28;20062;-79
2023/06/10 01:07:35;;;;;;;;;;;;;;;20.56;90.45;-18579.78;5050300;28;19932;-78
2023/06/10 01:10:32;;;;;;;;;;;;;;;20.54;91.47;-18579.25;5048853;28;20884;-79
2023/06/10 01:13:11;;;;;;;;;;;;;;;20.46;92.11;-18577.06;5023218;28;20312;-78
2023/06/10 01:15:37;;;;;;;;;;;;;;;20.49;93.78;-18578.03;5030984;28;20299;-79
2023/06/10 01:18:03;;;;;;;;;;;;;;;20.47;93.01;-18577.34;5047825;28;19982;-77
2023/06/10 01:20:31;;;;;;;;;;;;;;;20.33;94.77;-18573.66;5047675;28;20011;-78
2023/06/10 01:22:57;;;;;;;;;;;;;;;20.33;94.67;-18573.66;5047615;28;20031;-79
2023/06/10 01:25:27;;;;;;;;;;;;;;;20.26;95.45;-18571.75;5050232;28;20054;-79
2023/06/10 01:28:05;;;;;;;;;;;;;;;20.21;96.96;-18570.41;5050605;28;20466;-79
2023/06/10 01:30:37;;;;;;;;;;;;;;;20.08;99.43;-18567.00;5029101;28;19921;-78
2023/06/10 01:33:06;;;;;;;;;;;;;;;19.94;100.00;-18563.31;5049170;28;19932;-79
2023/06/10 01:35:32;;;;;;;;;;;;;;;19.78;100.00;-18558.97;5050327;28;19964;-78
2023/06/10 01:37:58;;;;;;;;;;;;;;;19.66;100.00;-18555.84;5049362;28;19982;-79
2023/06/10 01:40:23;;;;;;;;;;;;;;;19.67;100.00;-18555.97;5049546;28;19933;-79
2023/06/10 01:42:49;;;;;;;;;;;;;;;19.60;100.00;-18554.34;5049032;28;20527;-79
2023/06/10 01:45:14;;;;;;;;;;;;;;;19.59;100.00;-18553.91;5048781;28;19988;-78
2023/06/10 01:47:39;;;;;;;;;;;;;;;19.57;100.00;-18553.38;5051324;28;19924;-79
2023/06/10 01:50:05;;;;;;;;;;;;;;;19.51;100.00;-18551.75;5051815;28;20019;-78
2023/06/10 01:52:30;;;;;;;;;;;;;;;19.43;100.00;-18549.69;5053193;28;19921;-79
2023/06/10 01:54:55;;;;;;;;;;;;;;;19.48;100.00;-18551.06;5051533;28;20669;-79
2023/06/10 01:57:20;;;;;;;;;;;;;;;19.39;100.00;-18548.59;5050493;28;19956;-78
2023/06/10 01:59:46;;;;;;;;;;;;;;;19.46;100.00;-18550.38;5049299;28;19936;-79
2023/06/10 02:02:11;;;;;;;;;;;;;;;19.54;100.00;-18552.69;5054128;28;20447;-79
2023/06/10 02:04:37;;;;;;;;;;;;;;;19.53;100.00;-18552.44;5049775;28;19924;-79
2023/06/10 02:07:03;;;;;;;;;;;;;;;19.38;100.00;-18548.34;5050899;28;20003;-79
2023/06/10 02:09:29;;;;;;;;;;;;;;;19.33;100.00;-18546.97;5038956;28;20014;-78
2023/06/10 02:11:55;;;;;;;;;;;;;;;19.38;100.00;-18548.47;5055497;28;19956;-79
2023/06/10 02:14:20;;;;;;;;;;;;;;;19.35;100.00;-18547.66;5050628;28;19921;-79
2023/06/10 02:16:46;;;;;;;;;;;;;;;19.30;100.00;-18546.28;5051912;28;20815;-79
2023/06/10 02:19:12;;;;;;;;;;;;;;;19.34;100.00;-18547.25;5046990;28;19929;-79
2023/06/10 02:21:37;;;;;;;;;;;;;;;19.23;100.00;-18544.38;5050281;28;20007;-78
2023/06/10 02:24:03;;;;;;;;;;;;;;;19.22;100.00;-18543.97;5040714;28;19920;-78
2023/06/10 02:26:28;;;;;;;;;;;;;;;19.27;100.00;-18545.34;5047778;28;19924;-78
2023/06/10 02:28:53;;;;;;;;;;;;;;;19.06;100.00;-18539.91;5049200;28;19924;-79
2023/06/10 02:31:19;;;;;;;;;;;;;;;19.05;100.00;-18539.50;5049070;28;20642;-79
2023/06/10 02:33:44;;;;;;;;;;;;;;;19.09;100.00;-18540.72;5048857;28;19921;-79
2023/06/10 02:36:13;;;;;;;;;;;;;;;19.02;100.00;-18538.66;5049624;28;20004;-79
2023/06/10 02:38:38;;;;;;;;;;;;;;;18.96;100.00;-18537.16;5048963;28;19920;-78
2023/06/10 02:41:03;;;;;;;;;;;;;;;18.90;100.00;-18535.66;5051133;28;19925;-79
2023/06/10 02:43:29;;;;;;;;;;;;;;;19.04;100.00;-18539.34;5060318;28;19928;-78
2023/06/10 02:45:54;;;;;;;;;;;;;;;18.94;100.00;-18536.75;5050171;28;19928;-79
2023/06/10 02:48:19;;;;;;;;;;;;;;;18.97;100.00;-18537.31;5049503;28;19928;-79
2023/06/10 02:50:45;;;;;;;;;;;;;;;18.91;100.00;-18535.81;5049344;28;19942;-79
2023/06/10 02:53:10;;;;;;;;;;;;;;;18.69;100.00;-18530.06;5050601;28;19920;-79
2023/06/10 02:55:35;;;;;;;;;;;;;;;18.63;100.00;-18528.44;5049263;28;20358;-79
2023/06/10 02:58:00;;;;;;;;;;;;;;;18.68;100.00;-18529.81;5057362;28;19920;-79
2023/06/10 03:00:26;;;;;;;;;;;;;;;18.61;100.00;-18527.88;5049693;28;19927;-79
2023/06/10 03:02:51;;;;;;;;;;;;;;;18.52;100.00;-18525.44;5048957;28;19925;-78
2023/06/10 03:05:17;;;;;;;;;;;;;;;18.60;100.00;-18527.63;5049985;28;19929;-79
2023/06/10 03:07:42;;;;;;;;;;;;;;;18.52;100.00;-18525.44;5050356;28;19927;-79
2023/06/10 03:10:07;;;;;;;;;;;;;;;18.49;100.00;-18524.75;5047598;28;19921;-78
2023/06/10 03:12:32;;;;;;;;;;;;;;;18.43;100.00;-18522.97;5049636;28;19920;-79
2023/06/10 03:14:58;;;;;;;;;;;;;;;18.53;100.00;-18525.56;5049780;28;19936;-79
2023/06/10 03:17:23;;;;;;;;;;;;;;;18.55;100.00;-18526.25;5058475;28;19971;-79
2023/06/10 03:19:48;;;;;;;;;;;;;;;18.55;100.00;-18526.25;5048723;28;19946;-79
2023/06/10 03:22:14;;;;;;;;;;;;;;;18.55;100.00;-18526.13;5056361;28;20368;-78
2023/06/10 03:24:39;;;;;;;;;;;;;;;18.44;100.00;-18523.25;5060015;28;19928;-78
2023/06/10 03:27:06;;;;;;;;;;;;;;;18.44;100.00;-18523.41;5057523;28;20008;-79
2023/06/10 03:29:32;;;;;;;;;;;;;;;18.40;100.00;-18522.16;5051118;28;20007;-79
2023/06/10 03:31:57;;;;;;;;;;;;;;;18.48;100.00;-18524.34;5056660;28;20498;-79
2023/06/10 03:34:23;;;;;;;;;;;;;;;18.44;100.00;-18523.41;5053129;28;19921;-78
2023/06/10 03:36:48;;;;;;;;;;;;;;;18.19;100.00;-18516.56;5054205;28;19956;-78
2023/06/10 03:39:13;;;;;;;;;;;;;;;18.12;100.00;-18514.81;5051662;28;19943;-79
2023/06/10 03:41:39;;;;;;;;;;;;;;;18.21;100.00;-18517.13;5051493;28;20011;-79
2023/06/10 03:44:04;;;;;;;;;;;;;;;18.09;100.00;-18513.84;5052057;28;19952;-78
2023/06/10 03:46:29;;;;;;;;;;;;;;;18.03;100.00;-18512.47;5067521;28;19924;-78
2023/06/10 03:48:55;;;;;;;;;;;;;;;18.06;100.00;-18513.03;5052353;28;19925;-78
2023/06/10 03:51:21;;;;;;;;;;;;;;;18.15;100.00;-18515.63;5051183;28;20015;-78
2023/06/10 03:53:46;;;;;;;;;;;;;;;18.18;100.00;-18516.31;5051458;28;19959;-79
2023/06/10 03:56:11;;;;;;;;;;;;;;;18.30;100.00;-18519.44;5051127;28;19927;-78
2023/06/10 03:58:36;;;;;;;;;;;;;;;18.32;100.00;-18519.97;5051474;28;19928;-79
2023/06/10 04:01:02;;;;;;;;;;;;;;;18.32;100.00;-18520.13;5053189;28;20311;-79
2023/06/10 04:03:27;;;;;;;;;;;;;;;18.38;100.00;-18521.75;5037113;28;19929;-79
2023/06/10 04:05:52;;;;;;;;;;;;;;;18.40;100.00;-18522.16;5061622;28;19921;-79
2023/06/10 04:08:17;;;;;;;;;;;;;;;18.34;100.00;-18520.53;5051661;28;20323;-78
2023/06/10 04:10:43;;;;;;;;;;;;;;;18.38;100.00;-18521.63;5051764;28;19928;-79
2023/06/10 04:13:09;;;;;;;;;;;;;;;18.46;100.00;-18523.94;5052430;28;19921;-79
2023/06/10 04:15:34;;;;;;;;;;;;;;;18.43;100.00;-18522.97;5049721;28;19920;-77
2023/06/10 04:18:00;;;;;;;;;;;;;;;18.43;100.00;-18522.97;5051682;28;20280;-79
2023/06/10 04:20:26;;;;;;;;;;;;;;;18.42;100.00;-18522.84;5051659;28;19928;-78
2023/06/10 04:22:51;;;;;;;;;;;;;;;18.36;100.00;-18521.22;5051981;28;19924;-79
2023/06/10 04:25:16;;;;;;;;;;;;;;;18.40;100.00;-18522.16;5051309;28;19955;-78
2023/06/10 04:27:42;;;;;;;;;;;;;;;18.39;100.00;-18522.03;5051067;28;19921;-79
2023/06/10 04:30:08;;;;;;;;;;;;;;;18.42;100.00;-18522.72;5055173;28;19943;-79
2023/06/10 04:32:34;;;;;;;;;;;;;;;18.48;100.00;-18524.47;5050826;28;20391;-78
2023/06/10 04:35:00;;;;;;;;;;;;;;;18.54;100.00;-18525.84;5051424;28;19921;-79
2023/06/10 04:37:25;;;;;;;;;;;;;;;18.54;100.00;-18525.97;5054169;28;19977;-78
2023/06/10 04:39:50;;;;;;;;;;;;;;;18.45;100.00;-18523.53;5050099;28;19925;-79
2023/06/10 04:42:15;;;;;;;;;;;;;;;18.52;100.00;-18525.31;5051074;28;19932;-78
2023/06/10 04:44:41;;;;;;;;;;;;;;;18.63;100.00;-18528.44;5049200;28;20400;-78
2023/06/10 04:47:07;;;;;;;;;;;;;;;18.71;100.00;-18530.47;5053114;28;20737;-79
2023/06/10 04:49:33;;;;;;;;;;;;;;;18.83;100.00;-18533.75;5049218;28;19927;-79
2023/06/10 04:51:59;;;;;;;;;;;;;;;18.83;100.00;-18533.75;5050129;28;19920;-79
2023/06/10 04:54:25;;;;;;;;;;;;;;;18.80;100.00;-18532.81;5050865;28;19982;-78
2023/06/10 04:56:50;;;;;;;;;;;;;;;18.92;100.00;-18536.06;5052898;28;19960;-79
2023/06/10 04:59:15;;;;;;;;;;;;;;;18.90;100.00;-18535.53;5050512;28;19925;-78
2023/06/10 05:01:40;;;;;;;;;;;;;;;18.88;100.00;-18535.13;5059301;28;19933;-79
2023/06/10 05:04:06;;;;;;;;;;;;;;;18.99;100.00;-18538.00;5051686;28;19927;-78
2023/06/10 05:06:31;;;;;;;;;;;;;;;19.14;100.00;-18542.06;5072930;22;19964;-80
2023/06/10 05:08:56;;;;;;;;;;;;;;;19.21;100.00;-18543.72;5047555;28;19955;-79
2023/06/10 05:11:21;;;;;;;;;;;;;;;19.22;100.00;-18543.97;5028848;28;19920;-79
2023/06/10 05:13:47;;;;;;;;;;;;;;;19.38;100.00;-18548.47;5047712;28;20444;-79
2023/06/10 05:16:12;;;;;;;;;;;;;;;19.31;100.00;-18546.56;5043027;28;19921;-79
2023/06/10 05:18:37;;;;;;;;;;;;;;;19.36;100.00;-18547.94;5028331;28;20427;-79
2023/06/10 05:21:02;;;;;;;;;;;;;;;19.54;100.00;-18552.56;5028561;28;19964;-80
2023/06/10 05:23:28;;;;;;;;;;;;;;;19.50;100.00;-18551.59;5027322;28;20950;-79
2023/06/10 05:25:53;;;;;;;;;;;;;;;19.51;100.00;-18551.75;5027323;28;19925;-79
2023/06/10 05:28:19;;;;;;;;;;;;;;;19.58;100.00;-18553.66;5027222;28;19932;-79
2023/06/10 05:30:44;;;;;;;;;;;;;;;19.74;100.00;-18557.88;5028612;28;19967;-79
2023/06/10 05:33:10;;;;;;;;;;;;;;;19.72;100.00;-18557.34;5025214;28;19967;-79
2023/06/10 05:35:35;;;;;;;;;;;;;;;19.68;100.00;-18556.25;5028667;28;19944;-78
2023/06/10 05:38:00;;;;;;;;;;;;;;;19.74;100.00;-18557.88;5030019;28;19925;-79
2023/06/10 05:40:25;;;;;;;;;;;;;;;19.82;100.00;-18560.06;5028248;28;19957;-79
2023/06/10 05:42:51;;;;;;;;;;;;;;;19.99;100.00;-18564.56;5029381;28;19928;-79
2023/06/10 05:45:16;;;;;;;;;;;;;;;20.12;100.00;-18567.97;5028578;28;19921;-79
2023/06/10 05:47:41;;;;;;;;;;;;;;;20.16;100.00;-18569.19;5009618;28;20271;-79
2023/06/10 05:50:08;;;;;;;;;;;;;;;20.33;100.00;-18573.53;5008352;28;19936;-80
2023/06/10 05:52:34;;;;;;;;;;;;;;;20.35;100.00;-18574.09;5025247;28;19975;-80
2023/06/10 05:54:59;;;;;;;;;;;;;;;20.36;100.00;-18574.47;5026393;28;20016;-79
2023/06/10 05:57:25;;;;;;;;;;;;;;;20.28;100.00;-18572.44;5027465;28;19960;-80
2023/06/10 05:59:50;;;;;;;;;;;;;;;20.45;100.00;-18576.78;5027812;28;19932;-79
2023/06/10 06:02:15;;;;;;;;;;;;;;;20.58;100.00;-18580.22;5025955;28;20388;-79
2023/06/10 06:04:40;;;;;;;;;;;;;;;20.63;100.00;-18581.69;5028017;28;19929;-79
2023/06/10 06:07:06;;;;;;;;;;;;;;;20.59;100.00;-18580.63;5029652;28;19921;-80
2023/06/10 06:09:31;;;;;;;;;;;;;;;20.79;100.00;-18585.91;5027637;28;20468;-79
2023/06/10 06:11:56;;;;;;;;;;;;;;;20.90;100.00;-18588.91;5019015;28;19921;-79
2023/06/10 06:14:21;;;;;;;;;;;;;;;21.06;100.00;-18593.13;5029208;28;19921;-79
2023/06/10 06:16:46;;;;;;;;;;;;;;;21.15;100.00;-18595.44;5026131;28;20380;-80
2023/06/10 06:19:12;;;;;;;;;;;;;;;21.21;100.00;-18597.06;5029791;28;20331;-79
2023/06/10 06:21:37;;;;;;;;;;;;;;;21.25;100.00;-18598.03;5028341;28;20417;-79
2023/06/10 06:24:03;;;;;;;;;;;;;;;21.26;98.84;-18598.28;5030565;28;19949;-80
2023/06/10 06:26:28;;;;;;;;;;;;;;;21.48;98.31;-18604.16;5026792;28;20004;-79
2023/06/10 06:28:53;;;;;;;;;;;;;;;21.49;98.36;-18604.56;5029831;28;19925;-79
2023/06/10 06:31:18;;;;;;;;;;;;;;;21.76;95.37;-18611.75;5027155;28;19982;-80
2023/06/10 06:33:44;;;;;;;;;;;;;;;21.65;93.44;-18608.75;5016557;28;20008;-80
2023/06/10 06:36:09;;;;;;;;;;;;;;;21.77;94.11;-18611.88;5027766;28;19948;-80
2023/06/10 06:38:34;;;;;;;;;;;;;;;22.03;90.89;-18618.81;5027952;28;19921;-79
2023/06/10 06:41:05;;;;;;;;;;;;;;;21.94;91.03;-18616.38;5028010;28;19921;-80
2023/06/10 06:43:30;;;;;;;;;;;;;;;22.12;89.52;-18621.25;5027300;28;19928;-80
2023/06/10 06:45:56;;;;;;;;;;;;;;;22.22;88.09;-18623.84;5028005;28;19921;-79
2023/06/10 06:48:21;;;;;;;;;;;;;;;22.37;86.01;-18627.91;5027707;28;19929;-80
2023/06/10 06:50:47;;;;;;;;;;;;;;;22.48;83.82;-18630.78;5026373;28;19964;-79
2023/06/10 06:53:12;;;;;;;;;;;;;;;22.66;82.68;-18635.53;5028374;28;19921;-79
2023/06/10 06:55:37;;;;;;;;;;;;;;;22.89;78.86;-18641.63;5028569;28;19951;-80
2023/06/10 06:58:03;;;;;;;;;;;;;;;23.06;79.22;-18646.25;5028954;28;19980;-80
2023/06/10 07:00:29;;;;;;;;;;;;;;;22.88;78.78;-18641.38;5031417;28;20353;-80
2023/06/10 07:02:54;;;;;;;;;;;;;;;22.89;79.01;-18641.78;5030780;28;20032;-80
2023/06/10 07:05:20;;;;;;;;;;;;;;;23.13;79.62;-18648.16;5032939;28;20012;-80
2023/06/10 07:07:45;;;;;;;;;;;;;;;23.19;74.13;-18649.66;5032660;28;20022;-80
2023/06/10 07:10:11;;;;;;;;;;;;;;;23.26;70.86;-18651.41;5033410;28;19917;-80
2023/06/10 07:12:36;;;;;;;;;;;;;;;23.41;72.01;-18655.47;5030230;28;19929;-80
2023/06/10 07:15:01;;;;;;;;;;;;;;;23.45;66.76;-18656.41;5030659;28;20406;-80
2023/06/10 07:17:27;;;;;;;;;;;;;;;23.57;67.46;-18659.81;5030111;28;19921;-79
2023/06/10 07:19:52;;;;;;;;;;;;;;;23.62;65.85;-18661.03;5014900;28;19996;-80
2023/06/10 07:22:17;;;;;;;;;;;;;;;23.68;67.28;-18662.53;5029562;28;19932;-80
2023/06/10 07:24:42;;;;;;;;;;;;;;;23.81;63.70;-18666.19;5031837;28;19964;-80
2023/06/10 07:27:08;;;;;;;;;;;;;;;23.96;60.21;-18670.00;5030572;28;19921;-81
2023/06/10 07:29:35;;;;;;;;;;;;;;;23.89;54.89;-18668.22;5034919;28;19967;-79
2023/06/10 07:32:00;;;;;;;;;;;;;;;23.98;57.61;-18670.66;5030609;28;19917;-80
2023/06/10 07:34:26;;;;;;;;;;;;;;;24.11;56.26;-18674.06;5030527;28;20403;-80
2023/06/10 07:36:51;;;;;;;;;;;;;;;24.28;54.31;-18678.53;5034319;28;19917;-79
2023/06/10 07:39:16;;;;;;;;;;;;;;;24.35;53.53;-18680.41;5036597;28;19921;-80
2023/06/10 07:41:41;;;;;;;;;;;;;;;24.50;54.57;-18684.34;5036419;28;19961;-79
2023/06/10 07:44:07;;;;;;;;;;;;;;;24.60;52.10;-18686.94;5021604;28;19917;-80
2023/06/10 07:46:32;;;;;;;;;;;;;;;24.67;50.39;-18688.81;5018026;28;19929;-80
2023/06/10 07:48:57;;;;;;;;;;;;;;;24.76;49.71;-18691.41;5038107;28;19921;-81
2023/06/10 07:51:22;;;;;;;;;;;;;;;24.85;48.86;-18693.56;5038310;28;19919;-80
2023/06/10 07:53:48;;;;;;;;;;;;;;;24.88;47.45;-18694.50;5032019;28;19925;-80
2023/06/10 07:56:13;;;;;;;;;;;;;;;25.03;47.42;-18698.31;5033202;28;19925;-80
2023/06/10 07:58:38;;;;;;;;;;;;;;;25.17;46.49;-18702.09;5034239;28;19928;-80
2023/06/10 08:01:03;;;;;;;;;;;;;;;25.30;46.88;-18705.63;5034851;28;19944;-80
2023/06/10 08:03:29;;;;;;;;;;;;;;;25.50;47.15;-18710.91;5034730;28;19971;-79
2023/06/10 08:05:54;;;;;;;;;;;;;;;25.46;46.58;-18709.69;5034158;28;19925;-80
2023/06/10 08:08:19;;;;;;;;;;;;;;;25.51;47.39;-18711.03;5032729;28;19921;-80
2023/06/10 08:10:45;;;;;;;;;;;;;;;25.72;46.64;-18716.72;5033678;28;19928;-80
2023/06/10 08:13:10;;;;;;;;;;;;;;;25.68;46.16;-18715.63;5033961;28;19917;-80
2023/06/10 08:15:35;;;;;;;;;;;;;;;25.83;44.64;-18719.69;5033381;28;20406;-79
2023/06/10 08:18:00;;;;;;;;;;;;;;;25.85;45.52;-18720.09;5033556;28;20456;-80
2023/06/10 08:20:26;;;;;;;;;;;;;;;25.96;44.85;-18722.94;5030166;28;19921;-80
2023/06/10 08:22:51;;;;;;;;;;;;;;;26.07;44.26;-18725.91;5030002;28;19932;-80
2023/06/10 08:25:16;;;;;;;;;;;;;;;25.96;44.61;-18723.06;5030069;28;20312;-80
2023/06/10 08:27:41;;;;;;;;;;;;;;;26.06;44.69;-18725.63;5031927;28;19922;-80
2023/06/10 08:30:07;;;;;;;;;;;;;;;26.24;44.93;-18730.38;5032851;28;19917;-80
2023/06/10 08:32:33;;;;;;;;;;;;;;;26.26;44.40;-18730.91;5032450;28;19971;-80
2023/06/10 08:34:58;;;;;;;;;;;;;;;26.38;44.62;-18734.03;5029778;28;19925;-80
2023/06/10 08:37:23;;;;;;;;;;;;;;;26.41;43.03;-18734.84;5009815;28;19928;-81
2023/06/10 08:39:49;;;;;;;;;;;;;;;26.47;43.52;-18736.44;5030472;28;19925;-80
2023/06/10 08:42:26;;;;;;;;;;;;;;;26.75;42.47;-18743.88;5016400;28;19932;-79
2023/06/10 08:44:55;;;;;;;;;;;;;;;26.70;42.01;-18742.69;5033048;28;20008;-79
2023/06/10 08:47:22;;;;;;;;;;;;;;;26.63;42.34;-18740.78;5021358;28;20013;-79
2023/06/10 08:49:47;;;;;;;;;;;;;;;26.75;42.27;-18744.03;5030710;28;20004;-79
2023/06/10 08:52:17;;;;;;;;;;;;;;;26.91;42.27;-18748.22;5033759;28;20348;-79
2023/06/10 08:54:59;;;;;;;;;;;;;;;27.03;41.32;-18751.31;5033802;28;19980;-80
2023/06/10 08:57:25;;;;;;;;;;;;;;;26.97;42.17;-18749.69;5029112;28;19925;-78
2023/06/10 08:59:52;;;;;;;;;;;;;;;27.09;41.95;-18752.94;5026861;28;19933;-79
2023/06/10 09:02:19;;;;;;;;;;;;;;;27.42;41.60;-18761.59;5030973;28;19932;-79
2023/06/10 09:04:45;;;;;;;;;;;;;;;27.51;42.55;-18763.88;5011984;28;19921;-79
2023/06/10 09:07:12;;;;;;;;;;;;;;;27.32;41.23;-18758.88;5021623;28;20022;-79
2023/06/10 09:09:37;;;;;;;;;;;;;;;27.24;41.73;-18756.88;5039213;28;19925;-81
2023/06/10 09:12:03;;;;;;;;;;;;;;;27.19;41.70;-18755.66;5039969;28;19935;-80
2023/06/10 09:14:28;;;;;;;;;;;;;;;27.39;40.95;-18760.78;5041760;28;19949;-81
2023/06/10 09:16:56;;;;;;;;;;;;;;;27.55;41.35;-18764.97;5041450;28;20994;-80
2023/06/10 09:19:22;;;;;;;;;;;;;;;27.83;41.27;-18772.38;5038835;28;20019;-79
2023/06/10 09:21:47;;;;;;;;;;;;;;;27.94;40.82;-18775.22;5041099;28;19932;-80
2023/06/10 09:24:13;;;;;;;;;;;;;;;28.05;39.81;-18778.31;5042404;28;19927;-80
2023/06/10 09:26:38;;;;;;;;;;;;;;;28.32;39.53;-18785.34;5039292;28;19948;-81
2023/06/10 09:29:04;;;;;;;;;;;;;;;28.41;39.03;-18787.75;5042789;28;19921;-80
2023/06/10 09:31:30;;;;;;;;;;;;;;;28.39;38.49;-18787.22;5039923;28;19975;-81
2023/06/10 09:34:04;;;;;;;;;;;;;;;28.62;39.17;-18793.16;5039534;28;19921;-81
2023/06/10 09:36:29;;;;;;;;;;;;;;;28.29;40.29;-18784.53;5032296;28;22313;-80
2023/06/10 09:38:56;;;;;;;;;;;;;;;28.43;42.00;-18788.19;5015938;28;19932;-81
2023/06/10 09:41:21;;;;;;;;;;;;;;;28.71;39.91;-18795.59;5033493;28;19948;-81
2023/06/10 09:43:48;;;;;;;;;;;;;;;28.67;40.58;-18794.50;5032899;28;19921;-81
2023/06/10 09:46:15;;;;;;;;;;;;;;;28.96;39.08;-18802.19;5031880;28;20024;-80
2023/06/10 09:48:42;;;;;;;;;;;;;;;28.89;38.25;-18800.44;5029894;28;19936;-82
2023/06/10 09:51:10;;;;;;;;;;;;;;;28.88;37.84;-18800.16;5031309;28;19943;-81
2023/06/10 09:53:36;;;;;;;;;;;;;;;28.93;38.58;-18801.53;5034879;28;19931;-81
2023/06/10 09:56:01;;;;;;;;;;;;;;;29.00;38.67;-18803.41;5029120;28;19976;-80
2023/06/10 09:58:36;;;;;;;;;;;;;;;29.20;37.69;-18808.53;5025091;28;19948;-80
2023/06/10 10:01:04;;;;;;;;;;;;;;;29.21;37.26;-18808.94;5020563;28;19940;-81
2023/06/10 10:03:29;;;;;;;;;;;;;;;29.02;37.43;-18803.94;5030265;28;20556;-81
2023/06/10 10:06:00;;;;;;;;;;;;;;;29.12;39.75;-18806.50;5041307;28;20131;-80
2023/06/10 10:08:25;;;;;;;;;;;;;;;29.16;39.34;-18807.44;5040508;28;20010;-80
2023/06/10 10:10:50;;;;;;;;;;;;;;;28.93;39.35;-18801.38;5042353;28;19921;-79
2023/06/10 10:13:16;;;;;;;;;;;;;;;29.42;38.39;-18814.44;5039883;28;19921;-80
2023/06/10 10:15:42;;;;;;;;;;;;;;;29.54;38.47;-18817.56;5027751;28;19917;-81
2023/06/10 10:18:08;;;;;;;;;;;;;;;29.59;39.17;-18818.75;5029445;28;19917;-81
2023/06/10 10:20:36;;;;;;;;;;;;;;;29.67;37.39;-18820.94;5045717;28;20009;-79
2023/06/10 10:23:03;;;;;;;;;;;;;;;29.45;38.35;-18815.25;5046298;28;20020;-80
2023/06/10 10:25:29;;;;;;;;;;;;;;;29.46;38.02;-18815.41;5038095;28;19921;-80
2023/06/10 10:27:58;;;;;;;;;;;;;;;29.54;36.46;-18817.56;5041587;28;20413;-79
2023/06/10 10:30:24;;;;;;;;;;;;;;;29.53;37.83;-18817.16;5041489;28;19984;-80
2023/06/10 10:33:07;;;;;;;;;;;;;;;29.80;38.29;-18824.41;5044893;28;20089;-80
2023/06/10 10:35:33;;;;;;;;;;;;;;;29.93;37.83;-18827.66;5038907;28;19985;-80
2023/06/10 10:37:58;;;;;;;;;;;;;;;30.18;37.41;-18834.38;5024095;28;19918;-80
2023/06/10 10:40:24;;;;;;;;;;;;;;;30.18;37.57;-18834.38;5044743;28;19971;-80
2023/06/10 10:42:52;;;;;;;;;;;;;;;30.29;36.67;-18837.34;5028741;28;20687;-80
2023/06/10 10:45:18;;;;;;;;;;;;;;;30.26;36.15;-18836.53;5042989;28;19918;-79
2023/06/10 10:47:44;;;;;;;;;;;;;;;30.20;37.23;-18834.91;5041491;28;19924;-81
2023/06/10 10:50:17;;;;;;;;;;;;;;;30.43;35.87;-18840.84;5028558;28;19944;-79
2023/06/10 10:52:48;;;;;;;;;;;;;;;30.21;36.49;-18835.19;5039153;28;19931;-80
2023/06/10 10:55:13;;;;;;;;;;;;;;;30.10;36.67;-18832.22;5035933;28;19932;-80
2023/06/10 10:57:39;;;;;;;;;;;;;;;30.17;37.65;-18833.97;5039112;28;19925;-80
2023/06/10 11:00:04;;;;;;;;;;;;;;;30.60;36.64;-18845.28;5041866;28;19918;-80
2023/06/10 11:02:40;;;;;;;;;;;;;;;30.49;35.72;-18842.44;5035790;28;20040;-80
2023/06/10 11:05:06;;;;;;;;;;;;;;;30.39;35.51;-18839.78;5036664;28;19968;-80
2023/06/10 11:07:33;;;;;;;;;;;;;;;30.28;36.26;-18836.94;5037669;28;19940;-79
2023/06/10 11:10:02;;;;;;;;;;;;;;;30.55;36.29;-18844.06;5030926;28;19921;-79
2023/06/10 11:12:45;;;;;;;;;;;;;;;30.63;36.34;-18846.22;5015272;28;19921;-80
2023/06/10 11:15:11;;;;;;;;;;;;;;;30.70;36.51;-18848.09;5030467;28;19928;-79
2023/06/10 11:17:37;;;;;;;;;;;;;;;30.92;35.10;-18853.88;5030035;28;19922;-79
2023/06/10 11:20:02;;;;;;;;;;;;;;;30.70;35.49;-18848.09;5028890;28;20281;-78
2023/06/10 11:22:27;;;;;;;;;;;;;;;30.80;35.51;-18850.78;5031678;28;20392;-78
2023/06/10 11:24:53;;;;;;;;;;;;;;;31.15;33.45;-18859.81;5032336;28;19921;-79
2023/06/10 11:27:22;;;;;;;;;;;;;;;30.99;32.80;-18855.78;5020842;28;19932;-78
2023/06/10 11:30:07;;;;;;;;;;;;;;;31.01;31.99;-18856.31;5033994;28;19917;-79
2023/06/10 11:32:34;;;;;;;;;;;;;;;31.17;32.21;-18860.47;5031973;28;19929;-79
2023/06/10 11:34:59;;;;;;;;;;;;;;;30.84;33.76;-18851.59;5025880;28;19928;-79
2023/06/10 11:37:25;;;;;;;;;;;;;;;30.90;33.09;-18853.34;5026066;28;20004;-78
2023/06/10 11:39:53;;;;;;;;;;;;;;;31.09;33.89;-18858.31;5024522;28;19932;-79
2023/06/10 11:42:19;;;;;;;;;;;;;;;30.98;32.53;-18855.38;5032478;28;20243;-79
2023/06/10 11:44:54;;;;;;;;;;;;;;;31.14;33.76;-18859.66;5018609;28;19917;-79
2023/06/10 11:47:20;;;;;;;;;;;;;;;31.52;32.12;-18869.47;5028717;28;19942;-78
2023/06/10 11:49:45;;;;;;;;;;;;;;;31.59;31.39;-18871.34;5035810;28;19917;-79
2023/06/10 11:52:11;;;;;;;;;;;;;;;31.44;31.15;-18867.47;5038978;28;19918;-78
2023/06/10 11:54:37;;;;;;;;;;;;;;;31.48;31.55;-18868.53;5038893;28;19944;-78
2023/06/10 11:57:03;;;;;;;;;;;;;;;31.62;33.04;-18872.31;5019046;28;19936;-79
2023/06/10 11:59:28;;;;;;;;;;;;;;;31.68;32.77;-18873.91;5038156;28;20016;-78
2023/06/10 12:01:54;;;;;;;;;;;;;;;31.71;32.74;-18874.59;5039317;28;19993;-79
2023/06/10 12:04:19;;;;;;;;;;;;;;;31.65;31.77;-18873.09;5039476;28;19917;-78
2023/06/10 12:06:46;;;;;;;;;;;;;;;31.64;31.37;-18872.84;5039247;28;19932;-79
2023/06/10 12:09:15;;;;;;;;;;;;;;;31.73;31.53;-18874.97;5032579;28;19921;-79
2023/06/10 12:11:40;;;;;;;;;;;;;;;31.76;31.39;-18875.78;5040489;28;19925;-79
2023/06/10 12:14:05;;;;;;;;;;;;;;;31.84;30.48;-18878.06;5038824;28;19917;-78
2023/06/10 12:16:31;;;;;;;;;;;;;;;32.17;30.91;-18886.53;5038598;28;19924;-80
2023/06/10 12:19:01;;;;;;;;;;;;;;;32.24;30.41;-18888.41;5033674;28;19917;-79
2023/06/10 12:21:26;;;;;;;;;;;;;;;32.19;30.02;-18887.19;5035678;28;19960;-79
2023/06/10 12:24:01;;;;;;;;;;;;;;;32.07;30.19;-18883.97;5037426;28;20018;-78
2023/06/10 12:26:39;;;;;;;;;;;;;;;32.19;31.22;-18887.06;5035151;28;19928;-79
2023/06/10 12:29:27;;;;;;;;;;;;;;;32.19;29.42;-18887.19;5031538;28;20012;-80